KAL1725 RKTU-RKPC
Flight info
| Callsign | KAL1725 |
|---|---|
| Flight time | 0h 48m |
| Altitude | 24000 |
| Route | UPTIL1 BULTI Y711 DOTOL |
| Aircraft | B739/M-SBDE2E3FGHIRWXY/LB1 |
Departure
| Time | 2026-04-29 09:13 |
|---|---|
| Airport | Cheongju International Airport/Cheongju Air Base (K-59/G-513) (RKTU) |
Arrival
| Time | 2026-04-29 10:01 |
|---|---|
| Airport | Jeju International Airport (RKPC) |
| Time | Latitude | Longitude | Altitude | Speed | Heading |
|---|---|---|---|---|---|
| 2026-04-29 08:45 | 36.72099 | 127.49610 | 195 ft | 0 kts | 323° |
| 2026-04-29 08:59 | 36.72090 | 127.49618 | 195 ft | 2 kts | 326° |
| 2026-04-29 08:59 | 36.72078 | 127.49628 | 195 ft | 2 kts | 322° |
| 2026-04-29 08:59 | 36.72066 | 127.49640 | 195 ft | 2 kts | 323° |
| 2026-04-29 09:00 | 36.72054 | 127.49651 | 195 ft | 2 kts | 323° |
| 2026-04-29 09:00 | 36.72041 | 127.49659 | 195 ft | 2 kts | 1° |
| 2026-04-29 09:00 | 36.72029 | 127.49653 | 195 ft | 0 kts | 47° |
| 2026-04-29 09:00 | 36.72026 | 127.49647 | 195 ft | 0 kts | 53° |
| 2026-04-29 09:01 | 36.72024 | 127.49645 | 195 ft | 0 kts | 52° |
| 2026-04-29 09:03 | 36.72026 | 127.49648 | 195 ft | 0 kts | 52° |
| 2026-04-29 09:03 | 36.72032 | 127.49657 | 195 ft | 1 kts | 52° |
| 2026-04-29 09:03 | 36.72041 | 127.49670 | 195 ft | 2 kts | 50° |
| 2026-04-29 09:03 | 36.72051 | 127.49686 | 195 ft | 2 kts | 49° |
| 2026-04-29 09:04 | 36.72062 | 127.49702 | 195 ft | 2 kts | 52° |
| 2026-04-29 09:04 | 36.72073 | 127.49720 | 195 ft | 2 kts | 52° |
| 2026-04-29 09:04 | 36.72084 | 127.49738 | 195 ft | 2 kts | 52° |
| 2026-04-29 09:04 | 36.72095 | 127.49757 | 195 ft | 2 kts | 52° |
| 2026-04-29 09:05 | 36.72107 | 127.49776 | 195 ft | 2 kts | 52° |
| 2026-04-29 09:05 | 36.72118 | 127.49795 | 195 ft | 2 kts | 52° |
| 2026-04-29 09:05 | 36.72130 | 127.49814 | 195 ft | 2 kts | 52° |
| 2026-04-29 09:05 | 36.72142 | 127.49833 | 195 ft | 2 kts | 52° |
| 2026-04-29 09:06 | 36.72154 | 127.49852 | 195 ft | 3 kts | 52° |
| 2026-04-29 09:06 | 36.72177 | 127.49890 | 195 ft | 8 kts | 52° |
| 2026-04-29 09:06 | 36.72228 | 127.49972 | 195 ft | 13 kts | 52° |
| 2026-04-29 09:06 | 36.72283 | 127.50060 | 195 ft | 12 kts | 52° |
| 2026-04-29 09:07 | 36.72331 | 127.50137 | 195 ft | 10 kts | 52° |
| 2026-04-29 09:07 | 36.72354 | 127.50180 | 195 ft | 3 kts | 72° |
| 2026-04-29 09:07 | 36.72351 | 127.50211 | 195 ft | 3 kts | 117° |
| 2026-04-29 09:07 | 36.72336 | 127.50230 | 195 ft | 3 kts | 144° |
| 2026-04-29 09:08 | 36.72319 | 127.50245 | 195 ft | 2 kts | 144° |
| 2026-04-29 09:08 | 36.72303 | 127.50260 | 195 ft | 3 kts | 144° |
| 2026-04-29 09:08 | 36.72266 | 127.50295 | 195 ft | 9 kts | 144° |
| 2026-04-29 09:08 | 36.72255 | 127.50357 | 195 ft | 7 kts | 66° |
| 2026-04-29 09:09 | 36.72288 | 127.50415 | 195 ft | 11 kts | 53° |
| 2026-04-29 09:09 | 36.72335 | 127.50490 | 195 ft | 10 kts | 51° |
| 2026-04-29 09:09 | 36.72376 | 127.50556 | 195 ft | 9 kts | 52° |
| 2026-04-29 09:09 | 36.72413 | 127.50612 | 195 ft | 7 kts | 54° |
| 2026-04-29 09:10 | 36.72444 | 127.50665 | 195 ft | 9 kts | 52° |
| 2026-04-29 09:10 | 36.72490 | 127.50741 | 195 ft | 10 kts | 52° |
| 2026-04-29 09:10 | 36.72532 | 127.50809 | 195 ft | 9 kts | 52° |
| 2026-04-29 09:10 | 36.72564 | 127.50873 | 195 ft | 7 kts | 73° |
| 2026-04-29 09:11 | 36.72565 | 127.50950 | 195 ft | 10 kts | 96° |
| 2026-04-29 09:11 | 36.72555 | 127.51033 | 195 ft | 8 kts | 98° |
| 2026-04-29 09:11 | 36.72524 | 127.51090 | 195 ft | 7 kts | 151° |
| 2026-04-29 09:11 | 36.72488 | 127.51073 | 195 ft | 1 kts | 230° |
| 2026-04-29 09:12 | 36.72453 | 127.51019 | 195 ft | 31 kts | 232° |
| 2026-04-29 09:12 | 36.72172 | 127.50567 | 195 ft | 99 kts | 232° |
| 2026-04-29 09:12 | 36.71619 | 127.49673 | 195 ft | 156 kts | 232° |
| 2026-04-29 09:13 | 36.70924 | 127.48554 | 692 ft | 163 kts | 233° |
| 2026-04-29 09:13 | 36.70210 | 127.47419 | 1201 ft | 176 kts | 233° |
| 2026-04-29 09:13 | 36.69443 | 127.46200 | 1865 ft | 178 kts | 233° |
| 2026-04-29 09:13 | 36.68708 | 127.45021 | 2540 ft | 175 kts | 234° |
| 2026-04-29 09:14 | 36.67928 | 127.43760 | 2967 ft | 187 kts | 233° |
| 2026-04-29 09:14 | 36.67144 | 127.42493 | 3618 ft | 187 kts | 233° |
| 2026-04-29 09:14 | 36.66310 | 127.41141 | 3958 ft | 205 kts | 233° |
| 2026-04-29 09:14 | 36.65486 | 127.39632 | 4390 ft | 219 kts | 244° |
| 2026-04-29 09:15 | 36.65097 | 127.37727 | 4747 ft | 236 kts | 273° |
| 2026-04-29 09:15 | 36.65320 | 127.35689 | 5231 ft | 247 kts | 282° |
| 2026-04-29 09:15 | 36.65667 | 127.33509 | 5712 ft | 262 kts | 282° |
| 2026-04-29 09:15 | 36.66020 | 127.31222 | 6235 ft | 276 kts | 282° |
| 2026-04-29 09:16 | 36.66356 | 127.28844 | 6773 ft | 286 kts | 281° |
| 2026-04-29 09:16 | 36.66675 | 127.26408 | 7667 ft | 283 kts | 280° |
| 2026-04-29 09:16 | 36.66976 | 127.24001 | 8379 ft | 287 kts | 280° |
| 2026-04-29 09:16 | 36.67292 | 127.21504 | 8999 ft | 293 kts | 281° |
| 2026-04-29 09:17 | 36.67611 | 127.19026 | 9817 ft | 292 kts | 280° |
| 2026-04-29 09:17 | 36.67935 | 127.16515 | 10466 ft | 298 kts | 280° |
| 2026-04-29 09:17 | 36.68270 | 127.13924 | 10856 ft | 312 kts | 281° |
| 2026-04-29 09:17 | 36.68628 | 127.11156 | 11234 ft | 327 kts | 281° |
| 2026-04-29 09:18 | 36.68989 | 127.08312 | 11677 ft | 340 kts | 280° |
| 2026-04-29 09:18 | 36.69368 | 127.05355 | 12014 ft | 355 kts | 280° |
| 2026-04-29 09:18 | 36.69763 | 127.02263 | 12662 ft | 360 kts | 281° |
| 2026-04-29 09:18 | 36.70162 | 126.99172 | 13405 ft | 362 kts | 281° |
| 2026-04-29 09:19 | 36.70480 | 126.96091 | 14091 ft | 367 kts | 275° |
| 2026-04-29 09:19 | 36.70327 | 126.92941 | 15113 ft | 362 kts | 259° |
| 2026-04-29 09:19 | 36.69461 | 126.90070 | 16069 ft | 358 kts | 243° |
| 2026-04-29 09:19 | 36.68019 | 126.87537 | 16713 ft | 363 kts | 231° |
| 2026-04-29 09:20 | 36.66190 | 126.85368 | 17459 ft | 365 kts | 222° |
| 2026-04-29 09:20 | 36.64083 | 126.83639 | 18094 ft | 372 kts | 209° |
| 2026-04-29 09:20 | 36.61533 | 126.82787 | 18785 ft | 381 kts | 191° |
| 2026-04-29 09:20 | 36.58873 | 126.82712 | 19289 ft | 390 kts | 184° |
| 2026-04-29 09:21 | 36.56160 | 126.82847 | 20005 ft | 389 kts | 183° |
| 2026-04-29 09:21 | 36.53438 | 126.83019 | 20438 ft | 395 kts | 183° |
| 2026-04-29 09:21 | 36.50699 | 126.83194 | 21055 ft | 394 kts | 183° |
| 2026-04-29 09:21 | 36.47940 | 126.83363 | 21590 ft | 395 kts | 185° |
| 2026-04-29 09:22 | 36.45195 | 126.83478 | 21995 ft | 400 kts | 185° |
| 2026-04-29 09:22 | 36.42399 | 126.83583 | 22606 ft | 397 kts | 186° |
| 2026-04-29 09:22 | 36.39676 | 126.83686 | 23122 ft | 396 kts | 186° |
| 2026-04-29 09:22 | 36.36924 | 126.83713 | 23344 ft | 391 kts | 189° |
| 2026-04-29 09:23 | 36.34202 | 126.83543 | 23615 ft | 387 kts | 193° |
| 2026-04-29 09:23 | 36.31547 | 126.83237 | 23703 ft | 386 kts | 193° |
| 2026-04-29 09:23 | 36.28877 | 126.82893 | 24021 ft | 381 kts | 194° |
| 2026-04-29 09:23 | 36.26239 | 126.82549 | 24084 ft | 383 kts | 193° |
| 2026-04-29 09:24 | 36.23589 | 126.82210 | 24090 ft | 382 kts | 194° |
| 2026-04-29 09:24 | 36.20950 | 126.81889 | 24091 ft | 378 kts | 193° |
| 2026-04-29 09:24 | 36.18317 | 126.81585 | 24091 ft | 377 kts | 193° |
| 2026-04-29 09:24 | 36.15703 | 126.81289 | 24088 ft | 378 kts | 193° |
| 2026-04-29 09:25 | 36.13076 | 126.80995 | 24089 ft | 376 kts | 193° |
| 2026-04-29 09:25 | 36.10454 | 126.80704 | 24092 ft | 377 kts | 193° |
| 2026-04-29 09:25 | 36.07880 | 126.80422 | 24085 ft | 376 kts | 193° |
| 2026-04-29 09:25 | 36.05240 | 126.80137 | 24091 ft | 375 kts | 193° |
| 2026-04-29 09:26 | 36.02613 | 126.79852 | 24095 ft | 374 kts | 193° |
| 2026-04-29 09:26 | 36.00037 | 126.79573 | 24098 ft | 375 kts | 193° |
| 2026-04-29 09:26 | 35.97396 | 126.79284 | 24096 ft | 376 kts | 193° |
| 2026-04-29 09:26 | 35.94811 | 126.79004 | 24097 ft | 375 kts | 193° |
| 2026-04-29 09:27 | 35.92204 | 126.78722 | 24098 ft | 374 kts | 193° |
| 2026-04-29 09:27 | 35.89587 | 126.78438 | 24098 ft | 376 kts | 193° |
| 2026-04-29 09:27 | 35.86985 | 126.78152 | 24099 ft | 375 kts | 193° |
| 2026-04-29 09:27 | 35.84372 | 126.77864 | 24099 ft | 375 kts | 193° |
| 2026-04-29 09:28 | 35.81809 | 126.77585 | 24096 ft | 375 kts | 193° |
| 2026-04-29 09:28 | 35.79172 | 126.77298 | 24097 ft | 375 kts | 193° |
| 2026-04-29 09:28 | 35.76578 | 126.77020 | 24097 ft | 373 kts | 193° |
| 2026-04-29 09:28 | 35.73969 | 126.76739 | 24099 ft | 376 kts | 193° |
| 2026-04-29 09:29 | 35.71376 | 126.76460 | 24096 ft | 375 kts | 193° |
| 2026-04-29 09:29 | 35.66156 | 126.75901 | 24095 ft | 377 kts | 193° |
| 2026-04-29 09:29 | 35.63564 | 126.75623 | 24095 ft | 375 kts | 193° |
| 2026-04-29 09:30 | 35.60960 | 126.75341 | 24096 ft | 374 kts | 193° |
| 2026-04-29 09:30 | 35.58352 | 126.75060 | 24093 ft | 375 kts | 193° |
| 2026-04-29 09:30 | 35.55750 | 126.74779 | 24096 ft | 375 kts | 193° |
| 2026-04-29 09:30 | 35.53157 | 126.74508 | 24093 ft | 375 kts | 193° |
| 2026-04-29 09:31 | 35.50529 | 126.74227 | 24092 ft | 376 kts | 193° |
| 2026-04-29 09:31 | 35.47929 | 126.73950 | 24092 ft | 375 kts | 194° |
| 2026-04-29 09:31 | 35.45316 | 126.73670 | 24089 ft | 375 kts | 193° |
| 2026-04-29 09:31 | 35.42704 | 126.73389 | 24096 ft | 380 kts | 193° |
| 2026-04-29 09:32 | 35.40026 | 126.73094 | 24098 ft | 391 kts | 193° |
| 2026-04-29 09:32 | 35.37275 | 126.72788 | 24091 ft | 401 kts | 193° |
| 2026-04-29 09:32 | 35.34461 | 126.72483 | 24095 ft | 411 kts | 193° |
| 2026-04-29 09:32 | 35.31555 | 126.72167 | 24091 ft | 420 kts | 192° |
| 2026-04-29 09:33 | 35.28647 | 126.71854 | 24092 ft | 426 kts | 193° |
| 2026-04-29 09:33 | 35.25682 | 126.71542 | 24093 ft | 426 kts | 192° |
| 2026-04-29 09:33 | 35.22702 | 126.71232 | 24092 ft | 425 kts | 192° |
| 2026-04-29 09:33 | 35.19762 | 126.70931 | 24096 ft | 423 kts | 193° |
| 2026-04-29 09:34 | 35.16798 | 126.70621 | 24092 ft | 427 kts | 192° |
| 2026-04-29 09:34 | 35.13830 | 126.70309 | 24093 ft | 425 kts | 192° |
| 2026-04-29 09:34 | 35.10907 | 126.70003 | 24095 ft | 425 kts | 193° |
| 2026-04-29 09:34 | 35.07920 | 126.69688 | 24097 ft | 426 kts | 192° |
| 2026-04-29 09:35 | 35.04983 | 126.69379 | 24093 ft | 423 kts | 193° |
| 2026-04-29 09:35 | 35.02031 | 126.69067 | 24102 ft | 426 kts | 193° |
| 2026-04-29 09:35 | 34.99100 | 126.68756 | 24096 ft | 426 kts | 193° |
| 2026-04-29 09:35 | 34.96139 | 126.68442 | 24098 ft | 425 kts | 193° |
| 2026-04-29 09:36 | 34.93170 | 126.68127 | 24097 ft | 422 kts | 193° |
| 2026-04-29 09:36 | 34.90312 | 126.67834 | 24095 ft | 403 kts | 193° |
| 2026-04-29 09:36 | 34.87595 | 126.67566 | 23992 ft | 388 kts | 193° |
| 2026-04-29 09:36 | 34.84932 | 126.67303 | 23641 ft | 382 kts | 193° |
| 2026-04-29 09:37 | 34.82306 | 126.67044 | 23302 ft | 374 kts | 193° |
| 2026-04-29 09:37 | 34.79739 | 126.66781 | 22907 ft | 368 kts | 193° |
| 2026-04-29 09:37 | 34.77171 | 126.66523 | 22411 ft | 367 kts | 193° |
| 2026-04-29 09:37 | 34.74662 | 126.66280 | 21968 ft | 364 kts | 192° |
| 2026-04-29 09:38 | 34.72140 | 126.66041 | 21462 ft | 363 kts | 192° |
| 2026-04-29 09:38 | 34.69649 | 126.65781 | 21126 ft | 356 kts | 192° |
| 2026-04-29 09:38 | 34.67166 | 126.65505 | 20549 ft | 358 kts | 192° |
| 2026-04-29 09:38 | 34.64727 | 126.65238 | 20177 ft | 352 kts | 192° |
| 2026-04-29 09:39 | 34.62271 | 126.64968 | 19592 ft | 353 kts | 193° |
| 2026-04-29 09:39 | 34.59844 | 126.64685 | 19171 ft | 349 kts | 192° |
| 2026-04-29 09:39 | 34.57448 | 126.64408 | 18697 ft | 346 kts | 192° |
| 2026-04-29 09:39 | 34.55041 | 126.64130 | 18260 ft | 343 kts | 192° |
| 2026-04-29 09:40 | 34.52700 | 126.63863 | 17756 ft | 341 kts | 192° |
| 2026-04-29 09:40 | 34.50329 | 126.63579 | 17195 ft | 340 kts | 192° |
| 2026-04-29 09:40 | 34.48005 | 126.63285 | 16715 ft | 336 kts | 192° |
| 2026-04-29 09:40 | 34.45660 | 126.62995 | 15964 ft | 340 kts | 191° |
| 2026-04-29 09:41 | 34.43340 | 126.62734 | 15447 ft | 338 kts | 191° |
| 2026-04-29 09:41 | 34.41004 | 126.62507 | 15044 ft | 334 kts | 190° |
| 2026-04-29 09:41 | 34.38701 | 126.62311 | 14777 ft | 329 kts | 190° |
| 2026-04-29 09:41 | 34.36429 | 126.62112 | 14494 ft | 325 kts | 189° |
| 2026-04-29 09:42 | 34.34173 | 126.61891 | 13695 ft | 335 kts | 189° |
| 2026-04-29 09:42 | 34.31809 | 126.61662 | 12866 ft | 341 kts | 188° |
| 2026-04-29 09:42 | 34.29489 | 126.61424 | 12550 ft | 332 kts | 190° |
| 2026-04-29 09:42 | 34.27201 | 126.61145 | 11985 ft | 333 kts | 189° |
| 2026-04-29 09:43 | 34.24889 | 126.60860 | 11563 ft | 329 kts | 191° |
| 2026-04-29 09:43 | 34.22646 | 126.60606 | 11206 ft | 325 kts | 188° |
| 2026-04-29 09:43 | 34.20406 | 126.60403 | 10867 ft | 319 kts | 187° |
| 2026-04-29 09:43 | 34.18225 | 126.60204 | 10734 ft | 306 kts | 188° |
| 2026-04-29 09:44 | 34.16137 | 126.60021 | 10661 ft | 293 kts | 187° |
| 2026-04-29 09:44 | 34.14136 | 126.59823 | 10503 ft | 284 kts | 187° |
| 2026-04-29 09:44 | 34.12177 | 126.59567 | 10085 ft | 285 kts | 190° |
| 2026-04-29 09:44 | 34.10218 | 126.59270 | 9767 ft | 282 kts | 188° |
| 2026-04-29 09:45 | 34.08250 | 126.59089 | 9473 ft | 280 kts | 186° |
| 2026-04-29 09:45 | 34.06317 | 126.58949 | 9042 ft | 281 kts | 186° |
| 2026-04-29 09:45 | 34.04350 | 126.58794 | 8638 ft | 281 kts | 185° |
| 2026-04-29 09:45 | 34.02388 | 126.58849 | 8235 ft | 283 kts | 172° |
| 2026-04-29 09:46 | 34.00549 | 126.59682 | 7843 ft | 283 kts | 144° |
| 2026-04-29 09:46 | 33.99230 | 126.61373 | 7581 ft | 276 kts | 121° |
| 2026-04-29 09:46 | 33.98465 | 126.63448 | 7258 ft | 273 kts | 107° |
| 2026-04-29 09:46 | 33.98063 | 126.65668 | 7040 ft | 268 kts | 96° |
| 2026-04-29 09:47 | 33.97866 | 126.67878 | 7001 ft | 267 kts | 94° |
| 2026-04-29 09:47 | 33.97710 | 126.70137 | 6987 ft | 268 kts | 93° |
| 2026-04-29 09:47 | 33.97561 | 126.72362 | 6989 ft | 269 kts | 93° |
| 2026-04-29 09:47 | 33.97414 | 126.74618 | 6989 ft | 270 kts | 93° |
| 2026-04-29 09:48 | 33.97269 | 126.76842 | 6988 ft | 269 kts | 93° |
| 2026-04-29 09:48 | 33.97123 | 126.79080 | 6991 ft | 268 kts | 93° |
| 2026-04-29 09:48 | 33.96974 | 126.81351 | 6994 ft | 268 kts | 93° |
| 2026-04-29 09:48 | 33.96831 | 126.83541 | 6992 ft | 257 kts | 93° |
| 2026-04-29 09:49 | 33.96688 | 126.85619 | 6991 ft | 244 kts | 93° |
| 2026-04-29 09:49 | 33.96552 | 126.87641 | 6993 ft | 240 kts | 93° |
| 2026-04-29 09:49 | 33.96407 | 126.89650 | 6999 ft | 244 kts | 96° |
| 2026-04-29 09:49 | 33.95988 | 126.91611 | 6997 ft | 240 kts | 112° |
| 2026-04-29 09:50 | 33.95143 | 126.93263 | 6994 ft | 225 kts | 125° |
| 2026-04-29 09:50 | 33.94269 | 126.94762 | 6994 ft | 213 kts | 122° |
| 2026-04-29 09:50 | 33.93495 | 126.96261 | 6996 ft | 212 kts | 120° |
| 2026-04-29 09:50 | 33.92601 | 126.97678 | 6995 ft | 215 kts | 138° |
| 2026-04-29 09:51 | 33.91212 | 126.98481 | 7003 ft | 235 kts | 171° |
| 2026-04-29 09:51 | 33.89539 | 126.98364 | 7019 ft | 246 kts | 196° |
| 2026-04-29 09:51 | 33.87985 | 126.97495 | 7014 ft | 247 kts | 214° |
| 2026-04-29 09:51 | 33.86606 | 126.96251 | 7034 ft | 249 kts | 219° |
| 2026-04-29 09:52 | 33.85263 | 126.94921 | 6998 ft | 247 kts | 221° |
| 2026-04-29 09:52 | 33.83932 | 126.93596 | 6992 ft | 248 kts | 220° |
| 2026-04-29 09:52 | 33.82578 | 126.92305 | 6998 ft | 250 kts | 218° |
| 2026-04-29 09:52 | 33.81189 | 126.91049 | 6994 ft | 248 kts | 217° |
| 2026-04-29 09:53 | 33.79816 | 126.89782 | 6977 ft | 249 kts | 219° |
| 2026-04-29 09:53 | 33.78444 | 126.88499 | 6807 ft | 250 kts | 219° |
| 2026-04-29 09:53 | 33.77064 | 126.87211 | 6515 ft | 249 kts | 218° |
| 2026-04-29 09:53 | 33.75705 | 126.85950 | 6224 ft | 248 kts | 218° |
| 2026-04-29 09:54 | 33.74333 | 126.84685 | 5933 ft | 248 kts | 218° |
| 2026-04-29 09:54 | 33.72955 | 126.83412 | 5638 ft | 248 kts | 218° |
| 2026-04-29 09:54 | 33.71606 | 126.82166 | 5347 ft | 246 kts | 218° |
| 2026-04-29 09:54 | 33.70251 | 126.80921 | 5054 ft | 244 kts | 216° |
| 2026-04-29 09:55 | 33.68865 | 126.79737 | 4768 ft | 243 kts | 216° |
| 2026-04-29 09:55 | 33.67524 | 126.78499 | 4483 ft | 243 kts | 220° |
| 2026-04-29 09:55 | 33.66299 | 126.77113 | 4214 ft | 241 kts | 227° |
| 2026-04-29 09:55 | 33.65211 | 126.75594 | 4084 ft | 241 kts | 231° |
| 2026-04-29 09:56 | 33.64195 | 126.73960 | 3811 ft | 244 kts | 234° |
| 2026-04-29 09:56 | 33.63237 | 126.72280 | 3517 ft | 241 kts | 236° |
| 2026-04-29 09:56 | 33.62325 | 126.70609 | 3244 ft | 237 kts | 237° |
| 2026-04-29 09:56 | 33.61451 | 126.68968 | 3024 ft | 229 kts | 237° |
| 2026-04-29 09:57 | 33.60628 | 126.67404 | 2900 ft | 216 kts | 238° |
| 2026-04-29 09:57 | 33.59847 | 126.65910 | 2752 ft | 205 kts | 238° |
| 2026-04-29 09:57 | 33.59103 | 126.64479 | 2570 ft | 198 kts | 238° |
| 2026-04-29 09:57 | 33.58390 | 126.63102 | 2376 ft | 193 kts | 238° |
| 2026-04-29 09:58 | 33.57698 | 126.61764 | 2323 ft | 183 kts | 238° |
| 2026-04-29 09:58 | 33.57030 | 126.60468 | 2164 ft | 183 kts | 238° |
| 2026-04-29 09:58 | 33.56372 | 126.59191 | 1897 ft | 173 kts | 239° |
| 2026-04-29 09:58 | 33.55759 | 126.58004 | 1649 ft | 167 kts | 239° |
| 2026-04-29 09:59 | 33.55146 | 126.56810 | 1433 ft | 165 kts | 239° |
| 2026-04-29 09:59 | 33.54549 | 126.55650 | 1220 ft | 162 kts | 239° |
| 2026-04-29 09:59 | 33.53954 | 126.54521 | 1027 ft | 159 kts | 238° |
| 2026-04-29 09:59 | 33.53353 | 126.53413 | 828 ft | 157 kts | 239° |
| 2026-04-29 10:00 | 33.52766 | 126.52303 | 620 ft | 156 kts | 239° |
| 2026-04-29 10:00 | 33.52205 | 126.51198 | 429 ft | 155 kts | 240° |
| 2026-04-29 10:00 | 33.51646 | 126.50090 | 207 ft | 155 kts | 240° |
| 2026-04-29 10:00 | 33.51095 | 126.49006 | 86 ft | 140 kts | 239° |
| 2026-04-29 10:01 | 33.50709 | 126.48250 | 85 ft | 76 kts | 239° |
| 2026-04-29 10:01 | 33.50510 | 126.47865 | 85 ft | 43 kts | 239° |
| 2026-04-29 10:01 | 33.50374 | 126.47633 | 87 ft | 21 kts | 200° |
| 2026-04-29 10:01 | 33.50274 | 126.47533 | 89 ft | 17 kts | 212° |
| 2026-04-29 10:02 | 33.50193 | 126.47498 | 91 ft | 9 kts | 159° |
| 2026-04-29 10:02 | 33.50162 | 126.47546 | 92 ft | 7 kts | 83° |
| 2026-04-29 10:02 | 33.50184 | 126.47596 | 92 ft | 6 kts | 60° |
| 2026-04-29 10:02 | 33.50205 | 126.47638 | 92 ft | 5 kts | 59° |
| 2026-04-29 10:03 | 33.50222 | 126.47671 | 92 ft | 4 kts | 58° |
| 2026-04-29 10:03 | 33.50238 | 126.47702 | 92 ft | 5 kts | 58° |
| 2026-04-29 10:03 | 33.50266 | 126.47754 | 92 ft | 7 kts | 58° |
| 2026-04-29 10:03 | 33.50291 | 126.47803 | 92 ft | 7 kts | 58° |
| 2026-04-29 10:04 | 33.50335 | 126.47889 | 92 ft | 14 kts | 59° |
| 2026-04-29 10:04 | 33.50387 | 126.47989 | 92 ft | 13 kts | 59° |
| 2026-04-29 10:04 | 33.50434 | 126.48082 | 92 ft | 12 kts | 59° |
| 2026-04-29 10:04 | 33.50494 | 126.48199 | 92 ft | 18 kts | 58° |
| 2026-04-29 10:05 | 33.50560 | 126.48328 | 92 ft | 17 kts | 58° |
| 2026-04-29 10:05 | 33.50623 | 126.48450 | 92 ft | 15 kts | 59° |
| 2026-04-29 10:05 | 33.50631 | 126.48498 | 92 ft | 4 kts | 120° |
| 2026-04-29 10:05 | 33.50607 | 126.48521 | 92 ft | 2 kts | 150° |
| 2026-04-29 10:06 | 33.50582 | 126.48539 | 93 ft | 6 kts | 147° |
| 2026-04-29 10:06 | 33.50542 | 126.48569 | 93 ft | 5 kts | 143° |
| 2026-04-29 10:06 | 33.50526 | 126.48599 | 95 ft | 7 kts | 93° |
| 2026-04-29 10:06 | 33.50566 | 126.48690 | 95 ft | 16 kts | 59° |
| 2026-04-29 10:07 | 33.50624 | 126.48803 | 94 ft | 15 kts | 58° |
| 2026-04-29 10:07 | 33.50679 | 126.48909 | 94 ft | 14 kts | 60° |
| 2026-04-29 10:07 | 33.50730 | 126.49009 | 94 ft | 13 kts | 57° |
| 2026-04-29 10:07 | 33.50776 | 126.49098 | 94 ft | 12 kts | 59° |
| 2026-04-29 10:08 | 33.50818 | 126.49181 | 94 ft | 11 kts | 58° |
| 2026-04-29 10:08 | 33.50856 | 126.49255 | 94 ft | 9 kts | 58° |
| 2026-04-29 10:08 | 33.50871 | 126.49283 | 94 ft | 2 kts | 58° |
| 2026-04-29 10:08 | 33.50882 | 126.49303 | 94 ft | 2 kts | 58° |
| 2026-04-29 10:09 | 33.50893 | 126.49325 | 94 ft | 3 kts | 59° |
| 2026-04-29 10:09 | 33.50907 | 126.49352 | 94 ft | 6 kts | 59° |
| 2026-04-29 10:09 | 33.50937 | 126.49415 | 93 ft | 4 kts | 78° |
| 2026-04-29 10:09 | 33.50923 | 126.49438 | 93 ft | 3 kts | 174° |
| 2026-04-29 10:10 | 33.50899 | 126.49438 | 94 ft | 6 kts | 179° |
| 2026-04-29 10:10 | 33.50836 | 126.49439 | 95 ft | 8 kts | 179° |
| 2026-04-29 10:10 | 33.50803 | 126.49440 | 95 ft | 0 kts | 179° |